Union, SC

3:22 PM EDT on September 23, 2014 (GMT -0400)
Chester | Change Station
CLOSE
Current Station
Airport
Location: Chester,
Elevation: 656 ft
Nearby Weather Stations

Elev 656 ft 34.79 °N, 81.20 °W | Updated 7 minutes ago

Overcast
Overcast
63 °F
Feels Like 63 °F
N
13
Wind Variable Wind from NNE

Today
High -- | Low -- °F
--% Chance of Precip.
Yesterday
High -- | Low -- °F
Precip. -- in
7:15 AM 7:21 PM
Waning Crescent, 0% visible
Pressure 30.33 in
Visibility 10.0 miles
Clouds Scattered Clouds 2100 ft
Scattered Clouds 7500 ft
Mostly Cloudy 9500 ft
Dew Point 54 °F
Humidity 72%
Rainfall 0.00 in
Snow Depth Not available.
UV 3 out of 12
Pollen 6.80 out of 12
Ozone Good
PM2.5 Good
Flu Activity Not available.
METAR KDCM 231915Z AUTO 03011KT 10SM -RA SCT021 SCT075 BKN095 17/12 A3033 RMK AO2

More Conditions Fewer Conditions

Pressure 30.33 in
Visibility 10.0 miles
Clouds Scattered Clouds 2100 ft
Scattered Clouds 7500 ft
Mostly Cloudy 9500 ft
Dew Point 54 °F
Humidity 72%
Rainfall 0.00 in
Snow Depth Not available.
UV 3 out of 12
Pollen 6.80 out of 12
Ozone Good
PM2.5 Good
Flu Activity Not available.
METAR KDCM 231915Z AUTO 03011KT 10SM -RA SCT021 SCT075 BKN095 17/12 A3033 RMK AO2

More Conditions Fewer Conditions

10-Day Weather Forecast

Almanac

Astronomy

Sep. 23, 2014 Rise Set
Actual Time 7:15 AM EDT 7:21 PM EDT
Civil Twilight 6:50 AM EDT 7:46 PM EDT
Nautical Twilight 6:20 AM EDT 8:16 PM EDT
Astronomical Twilight 5:50 AM EDT 8:45 PM EDT
Moon 6:38 AM EDT 7:00 PM EDT
Length of Visible Light 12h 56m
Length of Day
12h 06m
Tomorrow will be 2m 9s shorter.
Waning Crescent, 0% of the Moon is Illuminated
Today
Waning Crescent
Sep 24
New
Oct 1
First Quarter
Oct 8
Full
Oct 15
Last Quarter

Today's Extremes

State Highs State Lows

Community

WunderPhotos

Upload Photos

1,755,784 photos uploaded!

Nearby

Air Quality

  Air Quality AQ Index Pollutant
Yesterday Good
OZONE
Yesterday Good
PM2.5
Current Good
OZONE
Current Good
PM2.5
Tuesday Good
OZONE
Wednesday Good
OZONE

Snow Depth

Station Depth Elevation
No new snow has been reported.

Earthquake Activity

City Distance Mag. Time & Date
No recent earthquake activity has been reported nearby.
Minimum magnitude displayed is 2.5.

Coastal Water Temperatures

Place Temperature
No Stations Reporting

Nearby Weather Stations